Sct Zurich — V7NG2 — position and weather

sailwx.info

Track history (hours):
 
Tides and Currents Weather Stations Pressure Air Temp Water Temp Dewpoint Dewpoint Depression Visibility Wind Speed Wind Dir Waves Ship Positions

Sct Zurich

Last reported at 2014-Nov-18 09:24 UTC. Time now 2014-Nov-24 06:53 UTC.
Position N 32°05' W 081°03'.

Length 294 m; draft 10.7 m.

Type: Ship (hazmat cat D). MMSI: 538002956.

Date/timePositionNaut miles runAvg speedWind from/ knotsBaromVisibWave heightAir tempDewpointWater temp
2014-Nov-18 09:24N 32°05' W 081°03'4 4.8
2014-Nov-18 08:33N 32°07' W 081°07'2 1.9
2014-Nov-18 07:33N 32°08' W 081°09'0 0.0
2014-Nov-18 06:32N 32°08' W 081°09'0 0.0
2014-Nov-18 05:33N 32°08' W 081°09'0 0.0
2014-Nov-18 04:32N 32°08' W 081°09'0 0.0
2014-Nov-18 03:33N 32°08' W 081°09'0 0.0
2014-Nov-18 02:29N 32°08' W 081°09'0 0.0
2014-Nov-18 01:32N 32°08' W 081°09'0 0.0
2014-Nov-18 00:33N 32°08' W 081°09'0 0.0
2014-Nov-17 23:33N 32°08' W 081°09'0 0.0
2014-Nov-17 22:32N 32°08' W 081°09'0 0.0
2014-Nov-17 21:32N 32°08' W 081°09'0 0.0
2014-Nov-17 20:32N 32°08' W 081°09'0 0.0
2014-Nov-17 18:32N 32°08' W 081°09'0 0.0
2014-Nov-17 17:32N 32°08' W 081°09'0 0.0
2014-Nov-17 16:33N 32°08' W 081°09'3 3.3
2014-Nov-17 15:33N 32°05' W 081°06'6 5.8
2014-Nov-17 14:33N 32°05' W 080°59'  
2014-Nov-14 01:31N 39°23' W 073°53'1818.6
2014-Nov-14 00:33N 39°41' W 073°52'1818.4
2014-Nov-13 23:33N 39°60' W 073°50'1912.7
2014-Nov-13 22:04N 40°19' W 073°49'5 9.7
2014-Nov-13 21:32N 40°24' W 073°48'8 8.3
2014-Nov-13 20:33N 40°29' W 073°55'1212.3
2014-Nov-13 19:33N 40°39' W 074°05'4 3.8
2014-Nov-13 18:33N 40°41' W 074°09'0 0.0
2014-Nov-13 17:34N 40°41' W 074°09'0 0.0
2014-Nov-13 16:34N 40°41' W 074°09'0 0.0
2014-Nov-13 15:33N 40°41' W 074°09'0 0.0
2014-Nov-13 14:33N 40°41' W 074°09'0 0.0
2014-Nov-13 13:30N 40°41' W 074°09'0 0.0
2014-Nov-13 12:30N 40°41' W 074°09'0 0.0
2014-Nov-13 11:33N 40°41' W 074°09'0 0.0
2014-Nov-13 10:30N 40°41' W 074°09'0 0.0
2014-Nov-13 09:33N 40°41' W 074°09'0 0.0
2014-Nov-13 08:33N 40°41' W 074°09'0 0.0
2014-Nov-13 07:30N 40°41' W 074°09'0 0.0
2014-Nov-13 06:33N 40°41' W 074°09'0 0.0
2014-Nov-13 05:33N 40°41' W 074°09'0 0.0
2014-Nov-13 04:33N 40°41' W 074°09'0 0.0
2014-Nov-13 03:33N 40°41' W 074°09'0 0.0
2014-Nov-13 02:33N 40°41' W 074°09'0 0.0
2014-Nov-13 01:30N 40°41' W 074°09'0 0.0
2014-Nov-13 00:30N 40°41' W 074°09'0 0.0
2014-Nov-12 23:33N 40°41' W 074°09'0 0.0
2014-Nov-12 22:33N 40°41' W 074°09'1 1.1
2014-Nov-12 21:33N 40°40' W 074°08'3 3.0
2014-Nov-12 20:33N 40°39' W 074°05'4 4.0
2014-Nov-12 19:32N 40°36' W 074°02'0 0.1
2014-Nov-12 18:32N 40°36' W 074°02'4 4.5
2014-Nov-12 17:33N 40°31' W 074°00'1010.0
2014-Nov-12 16:33N 40°27' W 073°48'3 3.0
2014-Nov-12 15:33N 40°30' W 073°46'0 0.0
2014-Nov-12 14:33N 40°30' W 073°46'0 0.0
2014-Nov-12 13:33N 40°30' W 073°46'0 0.0
2014-Nov-12 12:33N 40°30' W 073°46'0 0.0
2014-Nov-12 11:33N 40°30' W 073°46'0 0.0
2014-Nov-12 10:33N 40°30' W 073°46'0 0.0
2014-Nov-12 09:33N 40°30' W 073°46'0 0.1
2014-Nov-12 08:33N 40°29' W 073°46'0 0.1
2014-Nov-12 07:33N 40°29' W 073°46'0 0.1
2014-Nov-12 06:33N 40°29' W 073°46'0 0.1
2014-Nov-12 05:33N 40°30' W 073°46'0 0.0
2014-Nov-12 04:33N 40°30' W 073°46'0 0.0
2014-Nov-12 03:33N 40°30' W 073°46'1 1.1
2014-Nov-12 02:33N 40°28' W 073°46'9 8.8
2014-Nov-12 01:33N 40°28' W 073°34'1312.8
2014-Nov-12 00:34N 40°30' W 073°18'1515.5
2014-Nov-11 23:34N 40°30' W 072°57'1515.5
2014-Nov-11 22:34N 40°31' W 072°37'1515.4
2014-Nov-11 21:34N 40°31' W 072°17'1615.5
2014-Nov-11 20:33N 40°31' W 071°56'1515.2
2014-Nov-11 19:34N 40°32' W 071°36'1515.1
2014-Nov-11 18:34N 40°32' W 071°17'1515.0
2014-Nov-11 17:34N 40°32' W 070°57'1515.1
2014-Nov-11 16:34N 40°33' W 070°37'1515.2
2014-Nov-11 15:34N 40°33' W 070°17'1313.4
2014-Nov-11 14:33N 40°33' W 069°59'1111.4
2014-Nov-11 13:33N 40°34' W 069°44'1615.7
2014-Nov-11 12:31N 40°34' W 069°23'1717.7
2014-Nov-11 11:33N 40°34' W 069°00'1818.4
2014-Nov-11 10:33N 40°34' W 068°36'  
Track history (hours):
 
Tides and Currents Weather Stations Pressure Air Temp Water Temp Dewpoint Dewpoint Depression Visibility Wind Speed Wind Dir Waves Ship Positions

Sct Zurich

Last reported at 2014-Nov-18 09:24 UTC. Time now 2014-Nov-24 06:53 UTC.
Position N 32°05' W 081°03'.

Length 294 m; draft 10.7 m.

Type: Ship (hazmat cat D). MMSI: 538002956.

Date/timePositionNaut miles runAvg speedWind from/ knotsBaromVisibWave heightAir tempDewpointWater temp
2014-Nov-18 09:24N 32°05' W 081°03'4 4.8
2014-Nov-18 08:33N 32°07' W 081°07'2 1.9
2014-Nov-18 07:33N 32°08' W 081°09'0 0.0
2014-Nov-18 06:32N 32°08' W 081°09'0 0.0
2014-Nov-18 05:33N 32°08' W 081°09'0 0.0
2014-Nov-18 04:32N 32°08' W 081°09'0 0.0
2014-Nov-18 03:33N 32°08' W 081°09'0 0.0
2014-Nov-18 02:29N 32°08' W 081°09'0 0.0
2014-Nov-18 01:32N 32°08' W 081°09'0 0.0
2014-Nov-18 00:33N 32°08' W 081°09'0 0.0
2014-Nov-17 23:33N 32°08' W 081°09'0 0.0
2014-Nov-17 22:32N 32°08' W 081°09'0 0.0
2014-Nov-17 21:32N 32°08' W 081°09'0 0.0
2014-Nov-17 20:32N 32°08' W 081°09'0 0.0
2014-Nov-17 18:32N 32°08' W 081°09'0 0.0
2014-Nov-17 17:32N 32°08' W 081°09'0 0.0
2014-Nov-17 16:33N 32°08' W 081°09'3 3.3
2014-Nov-17 15:33N 32°05' W 081°06'6 5.8
2014-Nov-17 14:33N 32°05' W 080°59'  
2014-Nov-14 01:31N 39°23' W 073°53'1818.6
2014-Nov-14 00:33N 39°41' W 073°52'1818.4
2014-Nov-13 23:33N 39°60' W 073°50'1912.7
2014-Nov-13 22:04N 40°19' W 073°49'5 9.7
2014-Nov-13 21:32N 40°24' W 073°48'8 8.3
2014-Nov-13 20:33N 40°29' W 073°55'1212.3
2014-Nov-13 19:33N 40°39' W 074°05'4 3.8
2014-Nov-13 18:33N 40°41' W 074°09'0 0.0
2014-Nov-13 17:34N 40°41' W 074°09'0 0.0
2014-Nov-13 16:34N 40°41' W 074°09'0 0.0
2014-Nov-13 15:33N 40°41' W 074°09'0 0.0
2014-Nov-13 14:33N 40°41' W 074°09'0 0.0
2014-Nov-13 13:30N 40°41' W 074°09'0 0.0
2014-Nov-13 12:30N 40°41' W 074°09'0 0.0
2014-Nov-13 11:33N 40°41' W 074°09'0 0.0
2014-Nov-13 10:30N 40°41' W 074°09'0 0.0
2014-Nov-13 09:33N 40°41' W 074°09'0 0.0
2014-Nov-13 08:33N 40°41' W 074°09'0 0.0
2014-Nov-13 07:30N 40°41' W 074°09'0 0.0
2014-Nov-13 06:33N 40°41' W 074°09'0 0.0
2014-Nov-13 05:33N 40°41' W 074°09'0 0.0
2014-Nov-13 04:33N 40°41' W 074°09'0 0.0
2014-Nov-13 03:33N 40°41' W 074°09'0 0.0
2014-Nov-13 02:33N 40°41' W 074°09'0 0.0
2014-Nov-13 01:30N 40°41' W 074°09'0 0.0
2014-Nov-13 00:30N 40°41' W 074°09'0 0.0
2014-Nov-12 23:33N 40°41' W 074°09'0 0.0
2014-Nov-12 22:33N 40°41' W 074°09'1 1.1
2014-Nov-12 21:33N 40°40' W 074°08'3 3.0
2014-Nov-12 20:33N 40°39' W 074°05'4 4.0
2014-Nov-12 19:32N 40°36' W 074°02'0 0.1
2014-Nov-12 18:32N 40°36' W 074°02'4 4.5
2014-Nov-12 17:33N 40°31' W 074°00'1010.0
2014-Nov-12 16:33N 40°27' W 073°48'3 3.0
2014-Nov-12 15:33N 40°30' W 073°46'0 0.0
2014-Nov-12 14:33N 40°30' W 073°46'0 0.0
2014-Nov-12 13:33N 40°30' W 073°46'0 0.0
2014-Nov-12 12:33N 40°30' W 073°46'0 0.0
2014-Nov-12 11:33N 40°30' W 073°46'0 0.0
2014-Nov-12 10:33N 40°30' W 073°46'0 0.0
2014-Nov-12 09:33N 40°30' W 073°46'0 0.1
2014-Nov-12 08:33N 40°29' W 073°46'0 0.1
2014-Nov-12 07:33N 40°29' W 073°46'0 0.1
2014-Nov-12 06:33N 40°29' W 073°46'0 0.1
2014-Nov-12 05:33N 40°30' W 073°46'0 0.0
2014-Nov-12 04:33N 40°30' W 073°46'0 0.0
2014-Nov-12 03:33N 40°30' W 073°46'1 1.1
2014-Nov-12 02:33N 40°28' W 073°46'9 8.8
2014-Nov-12 01:33N 40°28' W 073°34'1312.8
2014-Nov-12 00:34N 40°30' W 073°18'1515.5
2014-Nov-11 23:34N 40°30' W 072°57'1515.5
2014-Nov-11 22:34N 40°31' W 072°37'1515.4
2014-Nov-11 21:34N 40°31' W 072°17'1615.5
2014-Nov-11 20:33N 40°31' W 071°56'1515.2
2014-Nov-11 19:34N 40°32' W 071°36'1515.1
2014-Nov-11 18:34N 40°32' W 071°17'1515.0
2014-Nov-11 17:34N 40°32' W 070°57'1515.1
2014-Nov-11 16:34N 40°33' W 070°37'1515.2
2014-Nov-11 15:34N 40°33' W 070°17'1313.4
2014-Nov-11 14:33N 40°33' W 069°59'1111.4
2014-Nov-11 13:33N 40°34' W 069°44'1615.7
2014-Nov-11 12:31N 40°34' W 069°23'1717.7
2014-Nov-11 11:33N 40°34' W 069°00'1818.4
2014-Nov-11 10:33N 40°34' W 068°36'  

Dump ship's entire track history